sensor_id;sensor_type;location;lat;lon;timestamp;pressure;altitude;pressure_sealevel;temperature;humidity
8075;BME280;4080;42.676;23.372;2022-11-20T00:01:15;94413.78;;;15.01;100.00
8075;BME280;4080;42.676;23.372;2022-11-20T00:03:43;94406.78;;;15.05;100.00
8075;BME280;4080;42.676;23.372;2022-11-20T00:06:10;94421.63;;;15.06;100.00
8075;BME280;4080;42.676;23.372;2022-11-20T00:08:41;94407.50;;;14.88;100.00
8075;BME280;4080;42.676;23.372;2022-11-20T00:11:09;94428.16;;;15.00;100.00
8075;BME280;4080;42.676;23.372;2022-11-20T00:13:36;94403.13;;;14.84;100.00
8075;BME280;4080;42.676;23.372;2022-11-20T00:16:06;94384.84;;;14.82;100.00
8075;BME280;4080;42.676;23.372;2022-11-20T00:18:33;94414.59;;;15.10;100.00
8075;BME280;4080;42.676;23.372;2022-11-20T00:21:04;94409.91;;;15.07;100.00
8075;BME280;4080;42.676;23.372;2022-11-20T00:23:34;94420.97;;;15.01;100.00
8075;BME280;4080;42.676;23.372;2022-11-20T00:26:02;94410.22;;;15.06;100.00
8075;BME280;4080;42.676;23.372;2022-11-20T00:28:32;94385.84;;;15.04;100.00
8075;BME280;4080;42.676;23.372;2022-11-20T00:31:06;94370.63;;;14.78;100.00
8075;BME280;4080;42.676;23.372;2022-11-20T00:33:34;94415.22;;;15.07;100.00
8075;BME280;4080;42.676;23.372;2022-11-20T00:36:05;94363.19;;;15.06;100.00
8075;BME280;4080;42.676;23.372;2022-11-20T00:38:33;94388.81;;;15.19;100.00
8075;BME280;4080;42.676;23.372;2022-11-20T00:41:01;94403.50;;;15.17;100.00
8075;BME280;4080;42.676;23.372;2022-11-20T00:43:28;94393.19;;;15.15;100.00
8075;BME280;4080;42.676;23.372;2022-11-20T00:45:58;94400.22;;;15.03;100.00
8075;BME280;4080;42.676;23.372;2022-11-20T00:48:29;94386.47;;;15.27;100.00
8075;BME280;4080;42.676;23.372;2022-11-20T00:50:56;94413.13;;;15.61;100.00
8075;BME280;4080;42.676;23.372;2022-11-20T00:53:24;94395.56;;;15.86;100.00
8075;BME280;4080;42.676;23.372;2022-11-20T00:55:54;94437.03;;;15.96;100.00
8075;BME280;4080;42.676;23.372;2022-11-20T00:58:25;94438.28;;;15.72;100.00
8075;BME280;4080;42.676;23.372;2022-11-20T01:00:59;94378.81;;;15.51;100.00
8075;BME280;4080;42.676;23.372;2022-11-20T01:03:30;94382.72;;;15.88;100.00
8075;BME280;4080;42.676;23.372;2022-11-20T01:06:00;94403.53;;;15.95;100.00
8075;BME280;4080;42.676;23.372;2022-11-20T01:08:29;94406.31;;;16.07;100.00
8075;BME280;4080;42.676;23.372;2022-11-20T01:10:59;94408.59;;;16.34;100.00
8075;BME280;4080;42.676;23.372;2022-11-20T01:13:25;94393.50;;;16.56;100.00
8075;BME280;4080;42.676;23.372;2022-11-20T01:16:05;94408.81;;;16.67;100.00
8075;BME280;4080;42.676;23.372;2022-11-20T01:18:34;94403.00;;;16.74;100.00
8075;BME280;4080;42.676;23.372;2022-11-20T01:21:02;94375.06;;;16.80;100.00
8075;BME280;4080;42.676;23.372;2022-11-20T01:23:33;94383.63;;;16.94;100.00
8075;BME280;4080;42.676;23.372;2022-11-20T01:26:01;94386.81;;;17.08;100.00
8075;BME280;4080;42.676;23.372;2022-11-20T01:28:28;94371.56;;;17.18;100.00
8075;BME280;4080;42.676;23.372;2022-11-20T01:30:55;94399.13;;;17.43;100.00
8075;BME280;4080;42.676;23.372;2022-11-20T01:33:22;94364.63;;;17.46;100.00
8075;BME280;4080;42.676;23.372;2022-11-20T01:35:50;94361.34;;;17.41;100.00
8075;BME280;4080;42.676;23.372;2022-11-20T01:38:17;94359.81;;;17.19;100.00
8075;BME280;4080;42.676;23.372;2022-11-20T01:40:45;94367.69;;;17.15;100.00
8075;BME280;4080;42.676;23.372;2022-11-20T01:43:20;94364.41;;;17.10;100.00
8075;BME280;4080;42.676;23.372;2022-11-20T01:48:47;94357.41;;;16.75;100.00
8075;BME280;4080;42.676;23.372;2022-11-20T01:51:24;94345.25;;;16.66;100.00
8075;BME280;4080;42.676;23.372;2022-11-20T01:53:54;94362.06;;;16.87;100.00
8075;BME280;4080;42.676;23.372;2022-11-20T01:56:22;94342.75;;;16.90;100.00
8075;BME280;4080;42.676;23.372;2022-11-20T01:58:52;94356.34;;;16.97;100.00
8075;BME280;4080;42.676;23.372;2022-11-20T02:01:21;94317.81;;;16.95;100.00
8075;BME280;4080;42.676;23.372;2022-11-20T02:03:48;94337.59;;;17.15;100.00
8075;BME280;4080;42.676;23.372;2022-11-20T02:06:21;94360.06;;;17.26;100.00
8075;BME280;4080;42.676;23.372;2022-11-20T02:08:51;94327.75;;;17.06;100.00
8075;BME280;4080;42.676;23.372;2022-11-20T02:11:18;94348.22;;;17.35;100.00
8075;BME280;4080;42.676;23.372;2022-11-20T02:13:45;94350.50;;;17.46;100.00
8075;BME280;4080;42.676;23.372;2022-11-20T02:16:14;94366.69;;;17.61;100.00
8075;BME280;4080;42.676;23.372;2022-11-20T02:18:42;94344.69;;;17.44;100.00
8075;BME280;4080;42.676;23.372;2022-11-20T02:21:15;94384.66;;;17.52;100.00
8075;BME280;4080;42.676;23.372;2022-11-20T02:24:06;94355.91;;;17.58;100.00
8075;BME280;4080;42.676;23.372;2022-11-20T02:26:39;94376.97;;;17.51;100.00
8075;BME280;4080;42.676;23.372;2022-11-20T02:29:07;94369.31;;;17.49;100.00
8075;BME280;4080;42.676;23.372;2022-11-20T02:31:38;94342.88;;;17.56;100.00
8075;BME280;4080;42.676;23.372;2022-11-20T02:34:06;94384.69;;;17.64;100.00
8075;BME280;4080;42.676;23.372;2022-11-20T02:36:34;94393.34;;;17.61;100.00
8075;BME280;4080;42.676;23.372;2022-11-20T02:39:04;94376.00;;;17.55;100.00
8075;BME280;4080;42.676;23.372;2022-11-20T02:41:33;94371.69;;;17.63;100.00
8075;BME280;4080;42.676;23.372;2022-11-20T02:44:00;94394.03;;;17.79;100.00
8075;BME280;4080;42.676;23.372;2022-11-20T02:46:27;94391.59;;;17.86;100.00
8075;BME280;4080;42.676;23.372;2022-11-20T02:48:54;94391.19;;;17.96;100.00
8075;BME280;4080;42.676;23.372;2022-11-20T02:51:20;94407.09;;;18.05;100.00
8075;BME280;4080;42.676;23.372;2022-11-20T02:53:47;94393.81;;;18.17;100.00
8075;BME280;4080;42.676;23.372;2022-11-20T02:56:15;94404.75;;;18.37;100.00
8075;BME280;4080;42.676;23.372;2022-11-20T02:58:42;94414.78;;;18.52;100.00
8075;BME280;4080;42.676;23.372;2022-11-20T03:01:09;94419.41;;;18.64;100.00
8075;BME280;4080;42.676;23.372;2022-11-20T03:03:35;94404.84;;;18.73;100.00
8075;BME280;4080;42.676;23.372;2022-11-20T03:06:02;94425.31;;;18.81;100.00
8075;BME280;4080;42.676;23.372;2022-11-20T03:08:29;94434.22;;;18.85;100.00
8075;BME280;4080;42.676;23.372;2022-11-20T03:10:56;94429.31;;;18.87;100.00
8075;BME280;4080;42.676;23.372;2022-11-20T03:13:24;94414.19;;;18.79;100.00
8075;BME280;4080;42.676;23.372;2022-11-20T03:15:51;94435.13;;;19.02;100.00
8075;BME280;4080;42.676;23.372;2022-11-20T03:18:18;94435.25;;;19.05;100.00
8075;BME280;4080;42.676;23.372;2022-11-20T03:20:44;94439.59;;;19.10;100.00
8075;BME280;4080;42.676;23.372;2022-11-20T03:23:11;94436.91;;;19.10;100.00
8075;BME280;4080;42.676;23.372;2022-11-20T03:25:38;94454.84;;;19.09;100.00
8075;BME280;4080;42.676;23.372;2022-11-20T03:28:04;94456.75;;;19.09;100.00
8075;BME280;4080;42.676;23.372;2022-11-20T03:30:32;94448.94;;;19.16;100.00
8075;BME280;4080;42.676;23.372;2022-11-20T03:32:59;94447.59;;;19.22;100.00
8075;BME280;4080;42.676;23.372;2022-11-20T03:35:26;94453.59;;;19.19;100.00
8075;BME280;4080;42.676;23.372;2022-11-20T03:37:52;94448.25;;;19.19;100.00
8075;BME280;4080;42.676;23.372;2022-11-20T03:40:19;94446.59;;;19.14;100.00
8075;BME280;4080;42.676;23.372;2022-11-20T03:42:46;94457.19;;;19.11;100.00
8075;BME280;4080;42.676;23.372;2022-11-20T03:45:13;94460.19;;;19.09;100.00
8075;BME280;4080;42.676;23.372;2022-11-20T03:47:42;94453.84;;;19.02;100.00
8075;BME280;4080;42.676;23.372;2022-11-20T03:50:09;94461.19;;;19.05;100.00
8075;BME280;4080;42.676;23.372;2022-11-20T03:52:37;94452.81;;;18.94;100.00
8075;BME280;4080;42.676;23.372;2022-11-20T03:55:05;94448.81;;;18.88;100.00
8075;BME280;4080;42.676;23.372;2022-11-20T03:57:31;94448.91;;;18.91;100.00
8075;BME280;4080;42.676;23.372;2022-11-20T03:59:59;94438.22;;;18.91;100.00
8075;BME280;4080;42.676;23.372;2022-11-20T04:02:25;94445.91;;;18.93;100.00
8075;BME280;4080;42.676;23.372;2022-11-20T04:04:53;94450.59;;;18.96;100.00
8075;BME280;4080;42.676;23.372;2022-11-20T04:07:20;94435.69;;;18.83;100.00
8075;BME280;4080;42.676;23.372;2022-11-20T04:09:47;94454.59;;;18.90;100.00
8075;BME280;4080;42.676;23.372;2022-11-20T04:12:13;94460.06;;;18.93;100.00
8075;BME280;4080;42.676;23.372;2022-11-20T04:14:40;94466.50;;;18.92;100.00
8075;BME280;4080;42.676;23.372;2022-11-20T04:17:07;94452.25;;;18.88;100.00
8075;BME280;4080;42.676;23.372;2022-11-20T04:19:33;94461.06;;;18.89;100.00
8075;BME280;4080;42.676;23.372;2022-11-20T04:22:01;94472.53;;;18.77;100.00
8075;BME280;4080;42.676;23.372;2022-11-20T04:24:28;94472.31;;;18.82;100.00
8075;BME280;4080;42.676;23.372;2022-11-20T04:26:55;94455.38;;;18.78;100.00
8075;BME280;4080;42.676;23.372;2022-11-20T04:29:22;94460.16;;;18.85;100.00
8075;BME280;4080;42.676;23.372;2022-11-20T04:31:48;94468.53;;;18.83;100.00
8075;BME280;4080;42.676;23.372;2022-11-20T04:34:15;94463.19;;;18.83;100.00
8075;BME280;4080;42.676;23.372;2022-11-20T04:36:42;94467.41;;;18.84;100.00
8075;BME280;4080;42.676;23.372;2022-11-20T04:39:14;94469.28;;;18.84;100.00
8075;BME280;4080;42.676;23.372;2022-11-20T04:45:04;94470.75;;;18.81;100.00
8075;BME280;4080;42.676;23.372;2022-11-20T05:12:23;94407.91;;;18.51;100.00
8075;BME280;4080;42.676;23.372;2022-11-20T05:15:54;94435.75;;;18.62;100.00
8075;BME280;4080;42.676;23.372;2022-11-20T05:19:34;94393.97;;;18.45;100.00
8075;BME280;4080;42.676;23.372;2022-11-20T05:22:48;94410.44;;;18.47;100.00
8075;BME280;4080;42.676;23.372;2022-11-20T05:25:21;94388.03;;;18.27;100.00
8075;BME280;4080;42.676;23.372;2022-11-20T05:27:59;94406.56;;;18.45;100.00
8075;BME280;4080;42.676;23.372;2022-11-20T05:30:32;94397.28;;;18.30;100.00
8075;BME280;4080;42.676;23.372;2022-11-20T05:33:22;94385.13;;;18.08;100.00
8075;BME280;4080;42.676;23.372;2022-11-20T05:36:09;94408.69;;;18.06;100.00
8075;BME280;4080;42.676;23.372;2022-11-20T05:38:37;94421.88;;;18.03;100.00
8075;BME280;4080;42.676;23.372;2022-11-20T05:41:05;94426.41;;;17.90;100.00
8075;BME280;4080;42.676;23.372;2022-11-20T05:43:34;94355.84;;;17.25;100.00
8075;BME280;4080;42.676;23.372;2022-11-20T05:46:01;94418.09;;;17.71;100.00
8075;BME280;4080;42.676;23.372;2022-11-20T05:52:11;94371.25;;;17.40;100.00
8075;BME280;4080;42.676;23.372;2022-11-20T05:55:15;94411.81;;;17.66;100.00
8075;BME280;4080;42.676;23.372;2022-11-20T05:57:41;94407.78;;;17.60;100.00
8075;BME280;4080;42.676;23.372;2022-11-20T06:00:11;94418.75;;;17.67;100.00
8075;BME280;4080;42.676;23.372;2022-11-20T06:02:38;94432.84;;;17.68;100.00
8075;BME280;4080;42.676;23.372;2022-11-20T06:05:05;94416.53;;;17.69;100.00
8075;BME280;4080;42.676;23.372;2022-11-20T06:07:32;94400.53;;;17.69;100.00
8075;BME280;4080;42.676;23.372;2022-11-20T06:09:59;94414.59;;;17.79;100.00
8075;BME280;4080;42.676;23.372;2022-11-20T06:12:25;94420.81;;;17.83;100.00
8075;BME280;4080;42.676;23.372;2022-11-20T06:14:52;94429.16;;;17.81;100.00
8075;BME280;4080;42.676;23.372;2022-11-20T06:17:20;94438.50;;;17.87;100.00
8075;BME280;4080;42.676;23.372;2022-11-20T06:19:47;94439.28;;;17.88;100.00
8075;BME280;4080;42.676;23.372;2022-11-20T06:22:13;94436.19;;;17.86;100.00
8075;BME280;4080;42.676;23.372;2022-11-20T06:24:40;94441.63;;;17.89;100.00
8075;BME280;4080;42.676;23.372;2022-11-20T06:27:07;94450.88;;;17.92;100.00
8075;BME280;4080;42.676;23.372;2022-11-20T06:29:34;94450.66;;;17.97;100.00
8075;BME280;4080;42.676;23.372;2022-11-20T06:32:00;94453.34;;;17.97;100.00
8075;BME280;4080;42.676;23.372;2022-11-20T06:34:28;94451.13;;;17.99;100.00
8075;BME280;4080;42.676;23.372;2022-11-20T06:36:55;94454.91;;;17.98;100.00
8075;BME280;4080;42.676;23.372;2022-11-20T06:42:44;94449.69;;;18.02;100.00
8075;BME280;4080;42.676;23.372;2022-11-20T06:48:19;94453.66;;;18.16;100.00
8075;BME280;4080;42.676;23.372;2022-11-20T06:57:32;94460.34;;;18.35;100.00
8075;BME280;4080;42.676;23.372;2022-11-20T06:59:59;94464.91;;;18.34;100.00
8075;BME280;4080;42.676;23.372;2022-11-20T07:02:26;94475.53;;;18.43;100.00
8075;BME280;4080;42.676;23.372;2022-11-20T07:04:52;94481.78;;;18.47;100.00
8075;BME280;4080;42.676;23.372;2022-11-20T07:07:19;94481.13;;;18.50;100.00
8075;BME280;4080;42.676;23.372;2022-11-20T07:09:46;94469.19;;;18.47;100.00
8075;BME280;4080;42.676;23.372;2022-11-20T07:12:12;94458.63;;;18.39;100.00
8075;BME280;4080;42.676;23.372;2022-11-20T07:14:40;94469.53;;;18.46;100.00
8075;BME280;4080;42.676;23.372;2022-11-20T07:17:07;94452.88;;;18.28;100.00
8075;BME280;4080;42.676;23.372;2022-11-20T07:19:34;94463.97;;;18.39;100.00
8075;BME280;4080;42.676;23.372;2022-11-20T07:22:01;94471.63;;;18.40;100.00
8075;BME280;4080;42.676;23.372;2022-11-20T07:24:27;94483.22;;;18.44;100.00
8075;BME280;4080;42.676;23.372;2022-11-20T07:26:54;94488.34;;;18.49;100.00
8075;BME280;4080;42.676;23.372;2022-11-20T07:29:21;94475.66;;;18.46;100.00
8075;BME280;4080;42.676;23.372;2022-11-20T07:31:49;94483.22;;;18.44;100.00
8075;BME280;4080;42.676;23.372;2022-11-20T07:34:15;94478.66;;;18.45;100.00
8075;BME280;4080;42.676;23.372;2022-11-20T07:36:42;94477.75;;;18.41;100.00
8075;BME280;4080;42.676;23.372;2022-11-20T07:39:09;94485.09;;;18.44;100.00
8075;BME280;4080;42.676;23.372;2022-11-20T07:41:36;94477.09;;;18.44;100.00
8075;BME280;4080;42.676;23.372;2022-11-20T07:44:03;94476.44;;;18.47;100.00
8075;BME280;4080;42.676;23.372;2022-11-20T07:46:29;94482.88;;;18.46;100.00
8075;BME280;4080;42.676;23.372;2022-11-20T07:48:58;94467.06;;;18.41;100.00
8075;BME280;4080;42.676;23.372;2022-11-20T07:51:25;94481.78;;;18.47;100.00
8075;BME280;4080;42.676;23.372;2022-11-20T07:53:52;94494.03;;;18.48;100.00
8075;BME280;4080;42.676;23.372;2022-11-20T07:56:19;94478.53;;;18.41;100.00
8075;BME280;4080;42.676;23.372;2022-11-20T07:58:46;94493.56;;;18.46;100.00
8075;BME280;4080;42.676;23.372;2022-11-20T08:01:13;94492.34;;;18.43;100.00
8075;BME280;4080;42.676;23.372;2022-11-20T08:03:39;94491.69;;;18.46;100.00
8075;BME280;4080;42.676;23.372;2022-11-20T08:06:08;94463.25;;;18.29;100.00
8075;BME280;4080;42.676;23.372;2022-11-20T08:08:34;94484.84;;;18.37;100.00
8075;BME280;4080;42.676;23.372;2022-11-20T08:11:01;94483.88;;;18.41;100.00
8075;BME280;4080;42.676;23.372;2022-11-20T08:13:46;94481.66;;;18.43;100.00
8075;BME280;4080;42.676;23.372;2022-11-20T08:16:29;94479.44;;;18.45;100.00
8075;BME280;4080;42.676;23.372;2022-11-20T08:18:56;94469.53;;;18.46;100.00
8075;BME280;4080;42.676;23.372;2022-11-20T08:21:24;94476.56;;;18.50;100.00
8075;BME280;4080;42.676;23.372;2022-11-20T08:23:51;94461.97;;;18.48;100.00
8075;BME280;4080;42.676;23.372;2022-11-20T08:26:17;94470.53;;;18.53;100.00
8075;BME280;4080;42.676;23.372;2022-11-20T08:28:44;94465.53;;;18.52;100.00
8075;BME280;4080;42.676;23.372;2022-11-20T08:31:12;94466.44;;;18.56;100.00
8075;BME280;4080;42.676;23.372;2022-11-20T08:33:38;94477.56;;;18.58;100.00
8075;BME280;4080;42.676;23.372;2022-11-20T08:36:06;94485.56;;;18.58;100.00
8075;BME280;4080;42.676;23.372;2022-11-20T08:38:34;94478.34;;;18.58;100.00
8075;BME280;4080;42.676;23.372;2022-11-20T08:41:02;94471.56;;;18.61;100.00
8075;BME280;4080;42.676;23.372;2022-11-20T08:43:47;94470.16;;;18.64;100.00
8075;BME280;4080;42.676;23.372;2022-11-20T08:46:14;94478.59;;;18.66;100.00
8075;BME280;4080;42.676;23.372;2022-11-20T08:48:41;94487.59;;;18.61;100.00
8075;BME280;4080;42.676;23.372;2022-11-20T08:51:08;94496.38;;;18.61;100.00
8075;BME280;4080;42.676;23.372;2022-11-20T08:53:36;94515.06;;;18.61;100.00
8075;BME280;4080;42.676;23.372;2022-11-20T08:56:03;94515.63;;;18.55;100.00
8075;BME280;4080;42.676;23.372;2022-11-20T08:58:29;94529.44;;;18.57;100.00
8075;BME280;4080;42.676;23.372;2022-11-20T09:00:56;94515.16;;;18.53;100.00
8075;BME280;4080;42.676;23.372;2022-11-20T09:03:23;94494.44;;;18.38;100.00
8075;BME280;4080;42.676;23.372;2022-11-20T09:05:56;94524.63;;;18.50;100.00
8075;BME280;4080;42.676;23.372;2022-11-20T09:08:23;94523.41;;;18.48;100.00
8075;BME280;4080;42.676;23.372;2022-11-20T09:10:52;94514.47;;;18.44;100.00
8075;BME280;4080;42.676;23.372;2022-11-20T09:13:19;94507.31;;;18.36;100.00
8075;BME280;4080;42.676;23.372;2022-11-20T09:15:46;94523.53;;;18.30;100.00
8075;BME280;4080;42.676;23.372;2022-11-20T09:18:13;94518.34;;;18.13;100.00
8075;BME280;4080;42.676;23.372;2022-11-20T09:20:39;94496.69;;;17.94;100.00
8075;BME280;4080;42.676;23.372;2022-11-20T09:23:06;94529.09;;;18.05;100.00
8075;BME280;4080;42.676;23.372;2022-11-20T09:25:33;94519.19;;;18.05;100.00
8075;BME280;4080;42.676;23.372;2022-11-20T09:28:01;94535.06;;;18.02;100.00
8075;BME280;4080;42.676;23.372;2022-11-20T09:30:28;94526.56;;;17.87;100.00
8075;BME280;4080;42.676;23.372;2022-11-20T09:32:56;94519.91;;;17.73;100.00
8075;BME280;4080;42.676;23.372;2022-11-20T09:35:23;94522.22;;;17.74;100.00
8075;BME280;4080;42.676;23.372;2022-11-20T09:37:49;94512.56;;;17.61;100.00
8075;BME280;4080;42.676;23.372;2022-11-20T09:40:20;94494.28;;;17.51;100.00
8075;BME280;4080;42.676;23.372;2022-11-20T09:42:52;94498.72;;;17.47;100.00
8075;BME280;4080;42.676;23.372;2022-11-20T09:45:24;94494.66;;;17.41;100.00
8075;BME280;4080;42.676;23.372;2022-11-20T09:48:05;94473.13;;;17.25;100.00
8075;BME280;4080;42.676;23.372;2022-11-20T09:50:40;94479.16;;;17.34;100.00
8075;BME280;4080;42.676;23.372;2022-11-20T09:53:12;94480.72;;;17.35;100.00
8075;BME280;4080;42.676;23.372;2022-11-20T09:55:40;94475.78;;;17.25;100.00
8075;BME280;4080;42.676;23.372;2022-11-20T09:58:11;94452.72;;;16.99;100.00
8075;BME280;4080;42.676;23.372;2022-11-20T10:00:40;94463.63;;;17.06;100.00
8075;BME280;4080;42.676;23.372;2022-11-20T10:03:14;94462.06;;;17.05;100.00
8075;BME280;4080;42.676;23.372;2022-11-20T10:05:45;94468.97;;;17.06;100.00
8075;BME280;4080;42.676;23.372;2022-11-20T10:08:17;94468.50;;;17.04;100.00
8075;BME280;4080;42.676;23.372;2022-11-20T10:10:49;94464.50;;;16.90;100.00
8075;BME280;4080;42.676;23.372;2022-11-20T10:13:35;94406.03;;;16.55;100.00
8075;BME280;4080;42.676;23.372;2022-11-20T10:16:16;94453.00;;;16.68;100.00
8075;BME280;4080;42.676;23.372;2022-11-20T10:19:02;94439.38;;;16.61;100.00
8075;BME280;4080;42.676;23.372;2022-11-20T10:21:41;94430.91;;;16.59;100.00
8075;BME280;4080;42.676;23.372;2022-11-20T10:24:36;94441.91;;;16.49;100.00
8075;BME280;4080;42.676;23.372;2022-11-20T10:27:18;94437.38;;;16.41;100.00
8075;BME280;4080;42.676;23.372;2022-11-20T10:30:00;94416.31;;;16.27;100.00
8075;BME280;4080;42.676;23.372;2022-11-20T10:32:33;94432.28;;;16.27;100.00
8075;BME280;4080;42.676;23.372;2022-11-20T10:35:07;94434.47;;;16.25;100.00
8075;BME280;4080;42.676;23.372;2022-11-20T10:37:42;94435.25;;;16.26;100.00
8075;BME280;4080;42.676;23.372;2022-11-20T10:40:20;94434.75;;;16.32;100.00
8075;BME280;4080;42.676;23.372;2022-11-20T10:42:52;94434.56;;;16.37;100.00
8075;BME280;4080;42.676;23.372;2022-11-20T10:45:32;94438.81;;;16.38;100.00
8075;BME280;4080;42.676;23.372;2022-11-20T10:48:14;94448.50;;;16.43;100.00
8075;BME280;4080;42.676;23.372;2022-11-20T10:50:52;94455.53;;;16.48;100.00
8075;BME280;4080;42.676;23.372;2022-11-20T10:53:36;94450.50;;;16.55;100.00
8075;BME280;4080;42.676;23.372;2022-11-20T10:56:07;94422.19;;;16.41;100.00
8075;BME280;4080;42.676;23.372;2022-11-20T10:58:41;94440.66;;;16.55;100.00
8075;BME280;4080;42.676;23.372;2022-11-20T11:01:14;94457.53;;;16.51;100.00
8075;BME280;4080;42.676;23.372;2022-11-20T11:03:43;94473.69;;;16.45;100.00
8075;BME280;4080;42.676;23.372;2022-11-20T11:06:14;94462.25;;;16.45;100.00
8075;BME280;4080;42.676;23.372;2022-11-20T11:08:47;94468.69;;;16.44;100.00
8075;BME280;4080;42.676;23.372;2022-11-20T11:11:21;94487.78;;;16.46;100.00
8075;BME280;4080;42.676;23.372;2022-11-20T11:13:49;94500.31;;;16.45;100.00
8075;BME280;4080;42.676;23.372;2022-11-20T11:16:20;94495.78;;;16.37;100.00
8075;BME280;4080;42.676;23.372;2022-11-20T11:18:49;94519.91;;;16.15;100.00
8075;BME280;4080;42.676;23.372;2022-11-20T11:21:23;94522.91;;;16.05;100.00
8075;BME280;4080;42.676;23.372;2022-11-20T11:23:59;94525.69;;;15.74;100.00
8075;BME280;4080;42.676;23.372;2022-11-20T11:26:26;94506.50;;;15.29;100.00
8075;BME280;4080;42.676;23.372;2022-11-20T11:29:00;94515.53;;;15.19;100.00
8075;BME280;4080;42.676;23.372;2022-11-20T11:31:29;94490.59;;;14.89;100.00
8075;BME280;4080;42.676;23.372;2022-11-20T11:34:07;94503.69;;;14.77;100.00
8075;BME280;4080;42.676;23.372;2022-11-20T11:36:37;94507.31;;;14.58;100.00
8075;BME280;4080;42.676;23.372;2022-11-20T11:39:08;94515.91;;;14.55;100.00
8075;BME280;4080;42.676;23.372;2022-11-20T11:41:37;94515.06;;;14.46;100.00
8075;BME280;4080;42.676;23.372;2022-11-20T11:44:20;94500.53;;;14.44;100.00
8075;BME280;4080;42.676;23.372;2022-11-20T11:47:06;94496.22;;;14.34;100.00
8075;BME280;4080;42.676;23.372;2022-11-20T11:49:37;94503.81;;;14.27;100.00
8075;BME280;4080;42.676;23.372;2022-11-20T11:52:09;94448.75;;;14.02;100.00
8075;BME280;4080;42.676;23.372;2022-11-20T11:54:42;94483.09;;;14.07;100.00
8075;BME280;4080;42.676;23.372;2022-11-20T11:57:14;94499.31;;;14.05;100.00
8075;BME280;4080;42.676;23.372;2022-11-20T11:59:51;94495.22;;;13.99;100.00
8075;BME280;4080;42.676;23.372;2022-11-20T12:02:31;94483.50;;;14.00;100.00
8075;BME280;4080;42.676;23.372;2022-11-20T12:05:05;94455.03;;;13.83;100.00
8075;BME280;4080;42.676;23.372;2022-11-20T12:07:41;94452.06;;;13.85;100.00
8075;BME280;4080;42.676;23.372;2022-11-20T12:10:15;94460.09;;;13.93;100.00
8075;BME280;4080;42.676;23.372;2022-11-20T12:12:46;94483.09;;;14.07;100.00
8075;BME280;4080;42.676;23.372;2022-11-20T12:15:23;94486.00;;;14.19;100.00
8075;BME280;4080;42.676;23.372;2022-11-20T12:17:51;94489.44;;;14.19;100.00
8075;BME280;4080;42.676;23.372;2022-11-20T12:20:19;94481.78;;;14.18;100.00
8075;BME280;4080;42.676;23.372;2022-11-20T12:22:54;94475.03;;;14.12;100.00
8075;BME280;4080;42.676;23.372;2022-11-20T12:25:24;94483.69;;;14.04;100.00
8075;BME280;4080;42.676;23.372;2022-11-20T12:28:20;94488.69;;;14.05;100.00
8075;BME280;4080;42.676;23.372;2022-11-20T12:31:09;94470.81;;;13.88;100.00
8075;BME280;4080;42.676;23.372;2022-11-20T12:33:49;94350.31;;;12.91;100.00
8075;BME280;4080;42.676;23.372;2022-11-20T12:36:29;94507.44;;;13.86;100.00
8075;BME280;4080;42.676;23.372;2022-11-20T12:39:13;94474.06;;;13.85;100.00
8075;BME280;4080;42.676;23.372;2022-11-20T12:41:59;94423.09;;;13.66;100.00
8075;BME280;4080;42.676;23.372;2022-11-20T12:45:06;94410.75;;;13.84;100.00
8075;BME280;4080;42.676;23.372;2022-11-20T12:47:56;94383.78;;;14.13;100.00
8075;BME280;4080;42.676;23.372;2022-11-20T12:50:32;94391.13;;;14.16;100.00
8075;BME280;4080;42.676;23.372;2022-11-20T12:53:04;94420.50;;;14.28;100.00
8075;BME280;4080;42.676;23.372;2022-11-20T12:55:43;94405.94;;;14.17;100.00
8075;BME280;4080;42.676;23.372;2022-11-20T12:58:19;94427.38;;;14.29;100.00
8075;BME280;4080;42.676;23.372;2022-11-20T13:00:56;94429.41;;;14.32;100.00
8075;BME280;4080;42.676;23.372;2022-11-20T13:03:42;94422.38;;;14.27;100.00
8075;BME280;4080;42.676;23.372;2022-11-20T13:06:14;94397.50;;;14.15;100.00
8075;BME280;4080;42.676;23.372;2022-11-20T13:08:45;94400.31;;;14.10;100.00
8075;BME280;4080;42.676;23.372;2022-11-20T13:11:18;94262.59;;;13.20;100.00
8075;BME280;4080;42.676;23.372;2022-11-20T13:16:43;94353.72;;;13.95;100.00
8075;BME280;4080;42.676;23.372;2022-11-20T13:19:14;94349.78;;;13.84;100.00
8075;BME280;4080;42.676;23.372;2022-11-20T13:21:43;94416.78;;;14.07;100.00
8075;BME280;4080;42.676;23.372;2022-11-20T13:24:24;94368.94;;;13.58;100.00
8075;BME280;4080;42.676;23.372;2022-11-20T13:27:17;94454.47;;;13.95;100.00
8075;BME280;4080;42.676;23.372;2022-11-20T13:29:46;94376.81;;;13.94;100.00
8075;BME280;4080;42.676;23.372;2022-11-20T13:32:15;94352.72;;;13.82;100.00
8075;BME280;4080;42.676;23.372;2022-11-20T13:34:52;94467.19;;;13.84;100.00
8075;BME280;4080;42.676;23.372;2022-11-20T13:37:25;94495.47;;;13.75;100.00
8075;BME280;4080;42.676;23.372;2022-11-20T13:40:05;94429.03;;;13.72;100.00
8075;BME280;4080;42.676;23.372;2022-11-20T13:42:40;94404.50;;;13.80;100.00
8075;BME280;4080;42.676;23.372;2022-11-20T13:45:20;94409.56;;;13.76;100.00
8075;BME280;4080;42.676;23.372;2022-11-20T13:47:49;94448.03;;;13.87;100.00
8075;BME280;4080;42.676;23.372;2022-11-20T13:50:16;94422.19;;;13.93;100.00
8075;BME280;4080;42.676;23.372;2022-11-20T13:52:48;94424.53;;;13.94;100.00
8075;BME280;4080;42.676;23.372;2022-11-20T13:55:23;94455.56;;;13.94;100.00
8075;BME280;4080;42.676;23.372;2022-11-20T13:58:19;94429.22;;;13.97;100.00
8075;BME280;4080;42.676;23.372;2022-11-20T14:00:58;94448.09;;;13.96;100.00
8075;BME280;4080;42.676;23.372;2022-11-20T14:03:29;94455.38;;;13.90;100.00
8075;BME280;4080;42.676;23.372;2022-11-20T14:05:59;94454.16;;;13.96;100.00
8075;BME280;4080;42.676;23.372;2022-11-20T14:09:01;94405.06;;;13.77;100.00
8075;BME280;4080;42.676;23.372;2022-11-20T14:11:30;94451.66;;;13.91;100.00
8075;BME280;4080;42.676;23.372;2022-11-20T14:14:00;94445.75;;;13.94;100.00